Time;durP1;ratioP1;P1;durP2;ratioP2;P2;SDS_P1;SDS_P2;PMS_P1;PMS_P2;Temp;Humidity;BMP_temperature;BMP_pressure;BME280_temperature;BME280_humidity;BME280_pressure;Samples;Min_cycle;Max_cycle;Signal;HPM_P1;HPM_P2
2023/04/03 00:00:49;;;;;;;;;0.25;0.00;;;;;5.89;57.54;103087.31;4984744;28;11591;-69
2023/04/03 00:03:18;;;;;;;;;0.25;0.25;;;;;5.90;56.76;103098.84;4985729;28;11440;-68
2023/04/03 00:05:46;;;;;;;;;0.00;0.00;;;;;5.96;56.97;103090.44;4989092;28;11429;-68
2023/04/03 00:08:12;;;;;;;;;0.75;0.75;;;;;5.90;56.37;103094.34;4989522;28;11226;-67
2023/04/03 00:10:40;;;;;;;;;1.75;0.00;;;;;5.89;56.94;103094.47;4982667;28;12180;-68
2023/04/03 00:13:07;;;;;;;;;0.00;0.00;;;;;5.92;57.37;103092.47;4988715;28;11054;-69
2023/04/03 00:15:35;;;;;;;;;0.00;0.00;;;;;6.01;57.45;103090.13;4983592;28;11238;-69
2023/04/03 00:18:04;;;;;;;;;0.00;0.00;;;;;6.02;56.94;103095.34;4988614;28;11869;-69
2023/04/03 00:20:31;;;;;;;;;0.00;0.00;;;;;5.96;57.24;103095.78;4988341;28;11083;-68
2023/04/03 00:22:57;;;;;;;;;0.75;0.00;;;;;5.91;56.76;103097.88;4989699;28;11206;-69
2023/04/03 00:25:24;;;;;;;;;0.00;0.00;;;;;5.91;56.98;103098.75;4984443;28;11489;-69
2023/04/03 00:27:51;;;;;;;;;0.50;0.50;;;;;6.00;56.98;103104.47;4979192;28;11197;-68
2023/04/03 00:30:20;;;;;;;;;0.00;0.00;;;;;5.94;57.02;103098.56;4986830;28;11416;-70
2023/04/03 00:32:51;;;;;;;;;1.00;0.00;;;;;5.98;57.53;103098.34;4971161;28;11236;-68
2023/04/03 00:35:19;;;;;;;;;0.00;0.00;;;;;6.02;56.75;103110.53;4988745;28;12049;-69
2023/04/03 00:37:46;;;;;;;;;0.50;0.50;;;;;5.99;57.85;103108.06;4968582;28;11230;-67
2023/04/03 00:40:15;;;;;;;;;0.00;0.00;;;;;5.94;56.74;103100.38;4986674;28;11413;-68
2023/04/03 00:42:43;;;;;;;;;0.25;0.25;;;;;5.83;57.31;103105.59;4988842;28;11219;-69
2023/04/03 00:45:33;;;;;;;;;1.00;1.00;;;;;5.73;57.04;103108.06;4968769;28;11067;-69
2023/04/03 00:48:01;;;;;;;;;0.25;0.25;;;;;5.57;57.16;103102.91;4993156;28;11418;-69
2023/04/03 00:50:29;;;;;;;;;0.00;0.00;;;;;5.50;57.62;103108.78;4966542;28;11437;-67
2023/04/03 00:52:57;;;;;;;;;0.50;0.50;;;;;5.56;58.00;103108.38;4973652;28;11552;-69
2023/04/03 00:55:25;;;;;;;;;0.00;0.00;;;;;5.61;58.24;103109.75;4986669;28;11225;-68
2023/04/03 00:57:52;;;;;;;;;1.00;1.00;;;;;5.70;57.76;103105.59;4964727;28;11615;-67
2023/04/03 01:00:20;;;;;;;;;0.00;0.00;;;;;5.75;57.87;103108.78;4982477;28;11422;-67
2023/04/03 01:02:47;;;;;;;;;1.50;0.75;;;;;5.78;58.94;103119.28;4971651;28;11559;-69
2023/04/03 01:05:16;;;;;;;;;0.75;0.00;;;;;5.81;58.13;103118.22;4959136;28;11332;-69
2023/04/03 01:07:44;;;;;;;;;1.00;1.00;;;;;5.78;58.49;103124.63;4974636;28;11428;-70
2023/04/03 01:10:15;;;;;;;;;0.75;0.75;;;;;5.78;58.65;103129.97;4966821;28;11244;-68
2023/04/03 01:12:44;;;;;;;;;0.00;0.00;;;;;5.69;58.40;103120.78;4961230;28;11455;-69
2023/04/03 01:15:17;;;;;;;;;2.00;0.50;;;;;5.72;58.96;103122.38;4967932;28;11407;-69
2023/04/03 01:17:45;;;;;;;;;0.50;0.50;;;;;5.72;58.65;103127.75;4978041;28;12161;-69
2023/04/03 01:20:17;;;;;;;;;2.00;0.50;;;;;5.65;59.07;103115.75;4990050;28;11232;-69
2023/04/03 01:22:57;;;;;;;;;1.00;1.00;;;;;5.64;59.31;103116.72;4973898;28;11337;-68
2023/04/03 01:25:24;;;;;;;;;1.25;1.25;;;;;5.63;59.55;103121.22;4963888;28;12174;-67
2023/04/03 01:27:50;;;;;;;;;1.00;0.00;;;;;5.60;58.91;103121.41;4969305;28;11674;-69
2023/04/03 01:30:20;;;;;;;;;0.25;0.25;;;;;5.57;59.66;103113.59;4991596;28;11534;-69
2023/04/03 01:32:47;;;;;;;;;1.25;0.00;;;;;5.62;59.62;103114.13;4972517;28;12189;-69
2023/04/03 01:35:13;;;;;;;;;0.75;0.75;;;;;5.63;59.89;103123.00;4971605;28;11419;-69
2023/04/03 01:37:40;;;;;;;;;0.00;0.00;;;;;5.64;60.09;103122.91;4990801;28;12198;-69
2023/04/03 01:40:07;;;;;;;;;1.00;1.00;;;;;5.57;59.71;103118.94;4982551;28;11564;-68
2023/04/03 01:42:34;;;;;;;;;1.00;1.00;;;;;5.51;60.58;103122.06;4987358;28;11480;-70
2023/04/03 01:45:00;;;;;;;;;2.00;1.00;;;;;5.52;60.49;103117.56;4960996;28;11283;-68
2023/04/03 01:47:27;;;;;;;;;0.25;0.25;;;;;5.51;60.19;103122.06;4987812;28;11215;-68
2023/04/03 01:49:53;;;;;;;;;0.50;0.00;;;;;5.52;60.81;103118.41;4968670;28;11345;-69
2023/04/03 01:52:20;;;;;;;;;0.00;0.00;;;;;5.55;60.74;103123.56;4973534;28;11417;-69
2023/04/03 01:54:46;;;;;;;;;1.00;1.00;;;;;5.46;59.87;103119.69;4983092;28;11445;-69
2023/04/03 01:57:14;;;;;;;;;1.00;0.50;;;;;5.35;60.97;103116.91;4989979;28;11421;-68
2023/04/03 01:59:41;;;;;;;;;1.00;1.00;;;;;5.33;61.62;103112.63;4972200;28;11417;-68
2023/04/03 02:02:07;;;;;;;;;0.00;0.00;;;;;5.34;61.52;103120.50;4968142;28;11579;-68
2023/04/03 02:04:35;;;;;;;;;3.50;1.50;;;;;5.34;61.16;103117.84;4967556;28;11436;-68
2023/04/03 02:07:01;;;;;;;;;1.00;0.00;;;;;5.30;61.61;103119.00;4990593;28;11435;-68
2023/04/03 02:09:28;;;;;;;;;1.50;1.50;;;;;5.24;61.41;103126.59;4968008;28;11440;-67
2023/04/03 02:11:54;;;;;;;;;1.75;1.00;;;;;5.20;62.13;103120.59;4965535;28;11425;-67
2023/04/03 02:14:23;;;;;;;;;2.25;1.75;;;;;5.25;62.26;103122.97;4967525;28;11430;-68
2023/04/03 02:16:50;;;;;;;;;1.75;1.00;;;;;5.27;62.06;103127.25;4969950;28;11440;-68
2023/04/03 02:19:16;;;;;;;;;1.50;1.50;;;;;5.35;62.55;103122.25;4985049;28;11544;-69
2023/04/03 02:21:42;;;;;;;;;1.00;1.00;;;;;5.36;62.04;103123.09;4972367;28;11447;-69
2023/04/03 02:24:09;;;;;;;;;0.00;0.00;;;;;5.39;62.24;103123.75;4969730;28;11451;-69
2023/04/03 02:26:35;;;;;;;;;1.00;1.00;;;;;5.46;62.66;103130.34;4988136;28;11571;-67
2023/04/03 02:29:04;;;;;;;;;1.00;1.00;;;;;5.52;62.60;103125.59;4981234;28;11588;-66
2023/04/03 02:31:30;;;;;;;;;0.50;0.50;;;;;5.56;62.00;103135.09;4982774;28;11422;-69
2023/04/03 02:33:59;;;;;;;;;1.00;0.50;;;;;5.46;61.83;103130.34;4969641;28;11460;-68
2023/04/03 02:36:26;;;;;;;;;0.75;0.00;;;;;5.45;61.96;103134.00;4970959;28;11442;-69
2023/04/03 02:38:56;;;;;;;;;3.00;1.00;;;;;5.40;62.59;103135.28;4967549;28;11443;-68
2023/04/03 02:41:25;;;;;;;;;2.00;0.75;;;;;5.42;62.76;103138.69;4987247;28;11439;-68
2023/04/03 02:43:52;;;;;;;;;4.00;1.00;;;;;5.38;62.23;103140.72;4968136;28;12146;-68
2023/04/03 02:46:18;;;;;;;;;2.25;1.75;;;;;5.28;62.34;103144.13;4966700;28;11451;-66
2023/04/03 02:48:45;;;;;;;;;2.00;2.00;;;;;5.28;62.46;103152.13;4986570;28;11445;-67
2023/04/03 02:51:11;;;;;;;;;1.00;0.75;;;;;5.28;63.11;103150.31;4969558;28;12150;-69
2023/04/03 02:53:38;;;;;;;;;1.00;1.00;;;;;5.29;62.93;103160.03;4966807;28;11471;-65
2023/04/03 02:56:11;;;;;;;;;2.00;2.00;;;;;5.29;63.19;103156.50;4979404;28;11426;-68
2023/04/03 02:58:37;;;;;;;;;1.50;1.00;;;;;5.23;62.37;103157.78;4970495;28;11428;-68
2023/04/03 03:01:06;;;;;;;;;1.50;1.50;;;;;5.19;63.16;103169.63;4967406;28;11424;-68
2023/04/03 03:03:32;;;;;;;;;3.50;3.50;;;;;5.10;63.33;103171.06;4990091;28;11418;-69
2023/04/03 03:06:11;;;;;;;;;2.00;1.00;;;;;5.07;63.37;103165.97;4963260;28;11511;-68
2023/04/03 03:08:39;;;;;;;;;1.00;1.00;;;;;5.09;63.95;103168.50;4975094;28;11442;-67
2023/04/03 03:11:06;;;;;;;;;1.50;1.50;;;;;5.07;63.63;103173.13;4964841;28;11435;-69
2023/04/03 03:13:34;;;;;;;;;1.00;1.00;;;;;4.93;63.27;103168.66;4989705;28;11465;-68
2023/04/03 03:16:01;;;;;;;;;3.50;1.00;;;;;4.81;63.74;103174.78;4986430;28;13819;-66
2023/04/03 03:18:28;;;;;;;;;2.25;1.00;;;;;4.80;64.20;103173.94;4968626;28;11475;-70
2023/04/03 03:20:57;;;;;;;;;1.00;1.00;;;;;4.91;64.58;103175.94;4982067;28;11473;-68
2023/04/03 03:23:25;;;;;;;;;1.50;0.00;;;;;4.99;64.60;103180.78;4970857;28;11541;-69
2023/04/03 03:25:57;;;;;;;;;1.00;1.00;;;;;4.97;64.48;103178.19;4963044;28;11424;-69
2023/04/03 03:28:23;;;;;;;;;4.00;2.00;;;;;5.04;64.42;103173.31;4988804;28;11429;-66
2023/04/03 03:30:50;;;;;;;;;1.50;1.50;;;;;5.06;64.38;103168.72;4981987;28;11429;-70
2023/04/03 03:33:18;;;;;;;;;1.00;1.00;;;;;5.05;64.45;103170.53;4969175;28;11444;-69
2023/04/03 03:35:45;;;;;;;;;0.25;0.25;;;;;5.05;64.13;103173.19;4957136;28;11456;-68
2023/04/03 03:38:12;;;;;;;;;0.50;0.50;;;;;4.89;64.71;103176.00;4989282;28;11425;-69
2023/04/03 03:40:38;;;;;;;;;4.00;3.50;;;;;4.85;64.77;103185.16;4987697;28;12240;-70
2023/04/03 03:43:05;;;;;;;;;1.25;1.00;;;;;4.87;64.60;103185.94;4986919;28;11528;-70
2023/04/03 03:45:32;;;;;;;;;2.00;1.00;;;;;4.91;64.56;103181.25;4964365;28;11462;-67
2023/04/03 03:47:59;;;;;;;;;1.50;0.75;;;;;4.89;64.62;103180.50;4990067;28;11532;-65
2023/04/03 03:50:25;;;;;;;;;0.25;0.25;;;;;4.88;65.11;103171.63;4966346;28;11509;-68
2023/04/03 03:52:52;;;;;;;;;4.00;4.00;;;;;4.80;64.31;103168.59;4969191;28;11431;-67
2023/04/03 03:55:18;;;;;;;;;3.00;3.00;;;;;4.73;65.01;103167.28;4982284;28;12154;-65
2023/04/03 03:57:50;;;;;;;;;0.50;0.50;;;;;4.78;64.83;103167.88;4970562;28;11509;-66
2023/04/03 04:00:17;;;;;;;;;1.00;1.00;;;;;4.67;64.94;103179.22;4964006;28;11414;-65
2023/04/03 04:02:50;;;;;;;;;0.75;0.75;;;;;4.67;64.89;103178.38;4972645;28;11406;-68
2023/04/03 04:05:20;;;;;;;;;5.00;1.25;;;;;4.69;65.15;103179.09;4949126;28;11441;-65
2023/04/03 04:07:47;;;;;;;;;2.00;1.00;;;;;4.71;65.21;103175.41;4962868;28;11460;-66
2023/04/03 04:10:14;;;;;;;;;1.25;1.25;;;;;4.58;64.75;103179.81;4983303;28;11414;-69
2023/04/03 04:12:43;;;;;;;;;2.00;2.00;;;;;4.45;65.06;103178.84;4967659;28;11527;-68
2023/04/03 04:15:10;;;;;;;;;1.75;1.75;;;;;4.45;65.80;103178.84;4965408;28;11444;-69
2023/04/03 04:17:37;;;;;;;;;2.00;2.00;;;;;4.45;65.93;103179.72;4970709;28;11433;-69
2023/04/03 04:20:08;;;;;;;;;1.75;1.75;;;;;4.48;64.82;103186.66;4966606;28;11490;-68
2023/04/03 04:22:35;;;;;;;;;4.25;2.00;;;;;4.45;65.75;103178.84;4973993;28;11444;-68
2023/04/03 04:25:02;;;;;;;;;3.25;1.00;;;;;4.43;65.98;103181.63;4986692;28;11508;-69
2023/04/03 04:27:29;;;;;;;;;4.50;2.50;;;;;4.42;65.93;103177.25;4957595;28;11469;-69
2023/04/03 04:29:55;;;;;;;;;3.50;1.25;;;;;4.39;65.32;103180.09;4990316;28;11563;-68
2023/04/03 04:32:24;;;;;;;;;2.75;1.00;;;;;4.28;65.78;103179.06;4967822;28;11442;-69
2023/04/03 04:34:51;;;;;;;;;2.00;1.00;;;;;4.30;66.24;103182.50;4974335;28;11431;-69
2023/04/03 04:37:18;;;;;;;;;1.75;1.75;;;;;4.34;66.23;103184.03;4974913;28;11431;-69
2023/04/03 04:39:45;;;;;;;;;4.00;2.00;;;;;4.33;65.86;103177.81;4970978;28;11533;-69
2023/04/03 04:42:12;;;;;;;;;2.50;1.00;;;;;4.30;66.17;103171.84;4973672;28;11480;-69
2023/04/03 04:44:43;;;;;;;;;4.00;2.00;;;;;4.22;65.74;103186.50;4968692;28;11508;-70
2023/04/03 04:47:10;;;;;;;;;2.00;0.75;;;;;4.13;66.03;103181.75;4970224;28;11441;-70
2023/04/03 04:49:36;;;;;;;;;2.00;1.00;;;;;4.17;66.43;103183.28;4986079;28;12157;-69
2023/04/03 04:52:03;;;;;;;;;5.00;4.00;;;;;4.13;65.88;103179.09;4992208;28;11399;-70
2023/04/03 04:54:31;;;;;;;;;2.00;2.00;;;;;4.10;66.09;103183.75;4973193;28;11439;-70
2023/04/03 04:56:57;;;;;;;;;1.00;1.00;;;;;4.11;66.30;103190.78;4988965;28;11438;-69
2023/04/03 04:59:25;;;;;;;;;2.00;2.00;;;;;4.03;66.62;103193.91;4967359;28;11437;-70
2023/04/03 05:01:54;;;;;;;;;4.75;4.00;;;;;4.04;66.45;103186.75;4967428;28;11484;-68
2023/04/03 05:04:21;;;;;;;;;2.00;2.00;;;;;4.06;66.59;103200.88;4982432;28;11438;-70
2023/04/03 05:06:52;;;;;;;;;1.25;1.25;;;;;4.00;66.25;103198.56;4973635;28;11462;-70
2023/04/03 05:09:24;;;;;;;;;4.00;4.00;;;;;3.95;66.76;103206.84;4974437;28;11777;-70
2023/04/03 05:11:51;;;;;;;;;2.00;2.00;;;;;3.95;66.91;103199.69;4967616;28;11436;-65
2023/04/03 05:14:23;;;;;;;;;1.25;1.00;;;;;3.94;66.94;103195.34;4971173;28;11437;-67
2023/04/03 05:16:53;;;;;;;;;4.00;2.00;;;;;4.01;67.03;103202.94;4973198;28;11426;-70
2023/04/03 05:19:22;;;;;;;;;2.00;2.00;;;;;4.03;66.99;103214.38;4969898;28;11569;-68
2023/04/03 05:21:50;;;;;;;;;4.50;4.00;;;;;4.00;67.10;103215.41;4978750;28;11511;-70
2023/04/03 05:24:17;;;;;;;;;5.25;1.25;;;;;4.00;66.81;103209.22;4969682;28;11442;-69
2023/04/03 05:26:44;;;;;;;;;3.50;3.50;;;;;4.01;66.53;103214.47;4974256;28;11508;-70
2023/04/03 05:29:11;;;;;;;;;3.00;3.00;;;;;3.92;66.70;103223.84;4968123;28;11492;-68
2023/04/03 05:31:38;;;;;;;;;2.50;2.50;;;;;3.84;66.95;103220.78;4973590;28;11438;-69
2023/04/03 05:34:07;;;;;;;;;2.50;2.50;;;;;3.89;66.92;103223.19;4969193;28;11537;-66
2023/04/03 05:36:35;;;;;;;;;2.00;1.00;;;;;3.90;67.08;103227.59;4953800;28;11452;-65
2023/04/03 05:39:05;;;;;;;;;5.00;3.50;;;;;3.92;66.84;103223.84;4959863;28;11569;-66
2023/04/03 05:41:35;;;;;;;;;1.75;1.00;;;;;3.92;66.87;103229.19;4959275;28;11432;-67
2023/04/03 05:44:01;;;;;;;;;2.00;2.00;;;;;3.91;66.66;103222.16;4980657;28;11426;-66
2023/04/03 05:46:28;;;;;;;;;5.25;2.00;;;;;3.90;66.73;103228.44;4984685;28;12269;-66
2023/04/03 05:48:56;;;;;;;;;4.00;4.00;;;;;3.92;65.98;103225.66;4970914;28;11412;-65
2023/04/03 05:51:34;;;;;;;;;0.00;0.00;;;;;4.02;66.79;103234.00;4974079;28;12194;-66
2023/04/03 05:54:20;;;;;;;;;2.00;2.00;;;;;4.10;65.86;103224.56;4970242;28;12229;-66
2023/04/03 05:56:47;;;;;;;;;2.50;2.50;;;;;4.08;65.19;103226.47;4955874;28;11481;-67
2023/04/03 05:59:14;;;;;;;;;4.25;1.25;;;;;4.13;66.00;103239.50;4960902;28;11427;-66
2023/04/03 06:01:40;;;;;;;;;2.00;1.50;;;;;4.18;65.34;103230.28;4975197;28;12093;-65
2023/04/03 06:04:08;;;;;;;;;1.00;1.00;;;;;4.29;65.03;103236.75;4970308;28;11519;-66
2023/04/03 06:06:54;;;;;;;;;2.00;2.00;;;;;4.40;65.17;103240.47;4955245;28;11579;-66
2023/04/03 06:09:24;;;;;;;;;2.00;2.00;;;;;4.42;65.25;103235.06;4961671;28;11452;-67
2023/04/03 06:11:51;;;;;;;;;5.00;3.00;;;;;4.53;63.95;103243.25;4992250;28;11428;-66
2023/04/03 06:14:19;;;;;;;;;4.00;1.00;;;;;4.55;64.29;103243.16;4968335;28;11434;-66
2023/04/03 06:16:46;;;;;;;;;4.00;1.75;;;;;4.55;64.36;103246.69;4972647;28;11472;-66
2023/04/03 06:19:13;;;;;;;;;7.00;4.50;;;;;4.74;64.40;103240.16;4960352;28;11448;-65
2023/04/03 06:21:46;;;;;;;;;7.25;4.00;;;;;4.83;63.39;103250.28;4974561;28;11483;-65
2023/04/03 06:24:16;;;;;;;;;1.00;1.00;;;;;4.84;63.85;103252.84;4986050;28;11459;-65
2023/04/03 06:26:42;;;;;;;;;1.00;1.00;;;;;4.85;62.04;103257.22;4972418;28;11522;-66
2023/04/03 06:29:09;;;;;;;;;1.00;1.00;;;;;4.69;62.32;103252.00;4977069;28;11464;-66
2023/04/03 06:31:36;;;;;;;;;1.75;1.75;;;;;4.71;63.11;103254.59;4992309;28;11460;-66
2023/04/03 06:34:03;;;;;;;;;3.50;2.00;;;;;4.74;63.23;103265.06;4987949;28;11461;-65
2023/04/03 06:36:32;;;;;;;;;2.00;2.00;;;;;4.78;62.99;103269.25;4972824;28;11466;-68
2023/04/03 06:38:58;;;;;;;;;4.00;4.00;;;;;4.89;62.86;103277.41;4975707;28;11545;-68
2023/04/03 06:41:26;;;;;;;;;3.00;3.00;;;;;4.91;62.22;103275.53;4991304;28;11579;-69
2023/04/03 06:43:52;;;;;;;;;1.50;1.00;;;;;4.85;62.40;103273.22;4989155;28;13074;-69
2023/04/03 06:46:22;;;;;;;;;4.00;4.00;;;;;4.89;62.81;103280.09;4971744;28;11511;-67
2023/04/03 06:48:49;;;;;;;;;4.00;2.00;;;;;4.92;62.78;103282.56;4973897;28;11487;-70
2023/04/03 06:51:25;;;;;;;;;2.50;2.50;;;;;5.05;63.06;103290.66;4991505;28;12158;-69
2023/04/03 06:53:54;;;;;;;;;3.00;3.00;;;;;5.15;61.39;103280.25;4989047;28;11560;-69
2023/04/03 06:56:21;;;;;;;;;4.00;2.00;;;;;5.05;62.66;103285.31;4971781;28;11436;-70
2023/04/03 06:58:48;;;;;;;;;2.25;1.00;;;;;5.17;63.11;103289.00;4973082;28;11449;-69
2023/04/03 07:01:18;;;;;;;;;3.50;2.00;;;;;5.36;62.46;103289.53;4973969;28;11430;-69
2023/04/03 07:03:47;;;;;;;;;4.00;4.00;;;;;5.51;61.37;103301.03;4989712;28;11571;-69
2023/04/03 07:06:16;;;;;;;;;1.00;1.00;;;;;5.52;60.89;103289.41;4971564;28;11450;-71
2023/04/03 07:08:43;;;;;;;;;4.50;3.00;;;;;5.54;61.28;103298.16;4972461;28;11452;-72
2023/04/03 07:11:10;;;;;;;;;4.75;3.50;;;;;5.59;60.86;103297.84;4990606;28;11438;-69
2023/04/03 07:13:37;;;;;;;;;2.00;2.00;;;;;5.42;60.02;103305.16;4973106;28;11526;-70
2023/04/03 07:16:05;;;;;;;;;4.00;3.00;;;;;5.33;60.94;103304.91;4971399;28;11632;-70
2023/04/03 07:18:32;;;;;;;;;4.00;2.00;;;;;5.35;61.42;103305.69;4971603;28;11486;-68
2023/04/03 07:20:58;;;;;;;;;2.00;1.00;;;;;5.51;61.44;103310.84;4989582;28;11478;-70
2023/04/03 07:23:25;;;;;;;;;2.75;2.75;;;;;5.73;60.63;103321.84;4991160;28;12166;-70
2023/04/03 07:25:52;;;;;;;;;2.00;1.75;;;;;5.89;60.27;103309.19;4972445;28;11413;-70
2023/04/03 07:28:22;;;;;;;;;2.50;1.25;;;;;5.99;59.26;103314.78;4971727;28;11517;-70
2023/04/03 07:30:51;;;;;;;;;2.00;2.00;;;;;6.05;58.90;103313.53;4989467;28;11443;-70
2023/04/03 07:33:20;;;;;;;;;2.00;2.00;;;;;5.90;58.82;103318.91;4990968;28;11432;-66
2023/04/03 07:35:47;;;;;;;;;4.50;2.25;;;;;5.86;59.30;103316.53;4972715;28;11238;-66
2023/04/03 07:38:13;;;;;;;;;1.25;1.00;;;;;5.99;59.63;103320.13;4971533;28;11453;-66
2023/04/03 07:40:44;;;;;;;;;2.50;1.00;;;;;6.15;59.01;103318.13;4987977;28;11421;-66
2023/04/03 07:43:11;;;;;;;;;2.50;2.00;;;;;6.24;58.38;103319.34;4990558;28;11046;-66
2023/04/03 07:45:37;;;;;;;;;1.25;1.25;;;;;6.11;57.80;103330.00;4974193;28;11587;-66
2023/04/03 07:48:04;;;;;;;;;4.00;4.00;;;;;6.04;58.04;103328.72;4971009;28;11082;-67
2023/04/03 07:50:32;;;;;;;;;2.00;2.00;;;;;6.11;58.05;103335.34;4986756;28;11443;-67
2023/04/03 07:52:58;;;;;;;;;1.00;1.00;;;;;6.23;58.30;103325.63;4991794;28;11224;-68
2023/04/03 07:55:25;;;;;;;;;0.00;0.00;;;;;6.37;57.14;103324.69;4979294;28;11380;-66
2023/04/03 07:57:51;;;;;;;;;2.00;2.00;;;;;6.52;57.34;103325.44;4975211;28;12009;-67
2023/04/03 08:00:19;;;;;;;;;4.00;2.00;;;;;6.54;56.38;103328.88;4976389;28;11039;-66
2023/04/03 08:02:51;;;;;;;;;1.00;1.00;;;;;6.54;56.35;103331.56;4975132;28;11129;-66
2023/04/03 08:05:18;;;;;;;;;2.00;2.00;;;;;6.74;56.14;103328.34;4988706;28;11077;-66
2023/04/03 08:07:46;;;;;;;;;1.75;1.75;;;;;6.75;56.11;103335.41;4976763;28;11160;-66
2023/04/03 08:10:13;;;;;;;;;4.00;1.00;;;;;6.82;54.90;103336.69;4981300;28;11153;-65
2023/04/03 08:12:39;;;;;;;;;1.00;1.00;;;;;6.80;55.03;103343.97;4975214;28;11262;-66
2023/04/03 08:15:08;;;;;;;;;1.50;1.50;;;;;6.94;54.93;103346.53;4969334;28;10923;-66
2023/04/03 08:17:34;;;;;;;;;1.00;1.00;;;;;7.15;53.78;103345.97;4994456;28;10970;-69
2023/04/03 08:20:04;;;;;;;;;1.00;1.00;;;;;7.13;51.79;103340.72;4982184;28;10988;-68
2023/04/03 08:22:30;;;;;;;;;1.25;1.25;;;;;6.95;52.55;103344.69;4974972;28;10956;-69
2023/04/03 08:24:57;;;;;;;;;4.00;1.00;;;;;7.09;53.53;103343.72;4968035;28;10867;-69
2023/04/03 08:27:26;;;;;;;;;2.00;1.75;;;;;7.22;52.61;103347.25;4994064;28;10978;-69
2023/04/03 08:29:52;;;;;;;;;1.75;1.75;;;;;7.33;52.30;103343.75;4983335;28;10852;-69
2023/04/03 08:32:19;;;;;;;;;1.00;1.00;;;;;7.46;50.63;103351.78;4957384;28;10775;-69
2023/04/03 08:34:46;;;;;;;;;1.00;1.00;;;;;7.66;50.08;103349.34;4966041;28;11568;-69
2023/04/03 08:37:12;;;;;;;;;1.00;1.00;;;;;7.68;50.47;103351.91;4993732;28;10611;-70
2023/04/03 08:39:39;;;;;;;;;2.50;0.75;;;;;7.70;51.21;103360.69;4984905;28;10675;-69
2023/04/03 08:42:15;;;;;;;;;2.75;2.50;;;;;7.67;50.53;103359.09;4974343;28;10688;-70
2023/04/03 08:44:47;;;;;;;;;1.00;1.00;;;;;7.69;50.65;103361.66;4983546;28;10893;-69
2023/04/03 08:47:25;;;;;;;;;1.75;1.00;;;;;7.76;49.80;103365.59;4993606;28;10819;-68
2023/04/03 08:49:57;;;;;;;;;2.00;1.00;;;;;7.80;48.05;103361.72;4983403;28;10694;-68
2023/04/03 08:52:45;;;;;;;;;4.00;1.25;;;;;7.85;48.98;103375.63;4974415;28;10672;-67
2023/04/03 08:55:28;;;;;;;;;3.25;1.75;;;;;7.95;47.33;103364.25;4969402;28;10596;-65
2023/04/03 08:58:07;;;;;;;;;1.00;1.00;;;;;8.04;48.12;103366.22;4993500;28;10797;-67
2023/04/03 09:01:01;;;;;;;;;1.50;1.00;;;;;8.11;45.40;103360.28;4977714;28;10677;-68
2023/04/03 09:03:31;;;;;;;;;0.00;0.00;;;;;8.12;46.80;103351.25;4974201;28;11298;-67
2023/04/03 09:06:05;;;;;;;;;3.50;0.75;;;;;8.35;46.55;103354.03;4992087;28;10543;-68
2023/04/03 09:08:40;;;;;;;;;0.00;0.00;;;;;8.55;44.88;103355.19;4993126;28;10620;-67
2023/04/03 09:11:26;;;;;;;;;0.00;0.00;;;;;8.62;45.09;103357.25;4993402;28;10585;-68
2023/04/03 09:14:02;;;;;;;;;0.50;0.50;;;;;8.74;43.30;103354.59;4992673;28;10492;-68
2023/04/03 09:16:47;;;;;;;;;0.00;0.00;;;;;8.73;43.06;103345.69;4993525;28;10510;-67
2023/04/03 09:19:36;;;;;;;;;0.00;0.00;;;;;8.60;41.93;103347.63;4987738;28;11017;-66
2023/04/03 09:22:13;;;;;;;;;2.00;1.00;;;;;8.51;43.20;103351.03;4974135;28;11091;-67
2023/04/03 09:24:41;;;;;;;;;1.00;1.00;;;;;8.51;41.88;103348.34;4984322;28;10278;-69
2023/04/03 09:27:10;;;;;;;;;0.50;0.50;;;;;8.61;41.89;103346.66;4999098;28;10514;-68
2023/04/03 09:29:47;;;;;;;;;2.00;1.00;;;;;8.80;42.60;103344.22;4994360;28;10417;-67
2023/04/03 09:32:26;;;;;;;;;0.00;0.00;;;;;9.00;41.96;103341.78;4966311;28;10402;-70
2023/04/03 09:34:56;;;;;;;;;1.00;1.00;;;;;9.04;41.26;103338.75;4994697;28;10533;-66
2023/04/03 09:37:42;;;;;;;;;0.00;0.00;;;;;9.00;40.81;103337.28;5000404;28;10257;-67
2023/04/03 09:40:28;;;;;;;;;1.00;1.00;;;;;9.01;40.51;103328.22;4969088;28;10198;-66
2023/04/03 09:43:20;;;;;;;;;0.00;0.00;;;;;9.06;40.08;103327.84;4965262;28;10299;-70
2023/04/03 09:45:48;;;;;;;;;0.50;0.50;;;;;9.06;40.64;103327.84;4977582;28;10275;-70
2023/04/03 09:48:24;;;;;;;;;0.00;0.00;;;;;9.04;39.69;103324.47;4996650;28;10232;-67
2023/04/03 09:50:55;;;;;;;;;1.00;1.00;;;;;9.09;38.67;103330.31;4976720;28;10377;-67
2023/04/03 09:53:43;;;;;;;;;0.00;0.00;;;;;9.13;37.20;103319.19;4956072;28;10449;-64
2023/04/03 09:56:16;;;;;;;;;1.75;0.00;;;;;9.06;36.89;103304.53;4973123;28;10344;-67
2023/04/03 09:58:48;;;;;;;;;0.25;0.25;;;;;9.31;38.78;103307.91;4974745;28;10320;-66
2023/04/03 10:01:30;;;;;;;;;0.00;0.00;;;;;9.46;36.39;103303.97;4995363;28;10149;-69
2023/04/03 10:04:13;;;;;;;;;0.00;0.00;;;;;9.49;35.96;103305.56;4989380;28;10245;-68
2023/04/03 10:06:46;;;;;;;;;0.00;0.00;;;;;9.61;35.31;103301.84;4972547;28;10927;-67
2023/04/03 10:09:21;;;;;;;;;1.00;1.00;;;;;9.61;35.85;103289.25;4961934;28;10291;-66
2023/04/03 10:12:12;;;;;;;;;0.00;0.00;;;;;9.53;34.75;103293.56;4992333;28;10157;-66
2023/04/03 10:14:53;;;;;;;;;0.00;0.00;;;;;9.46;33.93;103293.22;4983109;28;10218;-68
2023/04/03 10:17:35;;;;;;;;;0.00;0.00;;;;;9.65;34.25;103285.31;4972414;28;10227;-71
2023/04/03 10:20:44;;;;;;;;;1.00;0.00;;;;;9.73;33.80;103291.91;4968188;28;10229;-68
2023/04/03 10:23:38;;;;;;;;;0.00;0.00;;;;;9.76;33.51;103292.47;4916853;29;10240;-70
2023/04/03 10:26:10;;;;;;;;;0.00;0.00;;;;;9.74;34.23;103290.91;4913790;29;10095;-70
2023/04/03 10:28:50;;;;;;;;;0.00;0.00;;;;;9.99;34.91;103295.06;4956923;28;10201;-70
2023/04/03 10:31:36;;;;;;;;;0.25;0.00;;;;;9.87;32.91;103284.38;4972655;28;10105;-70
2023/04/03 10:34:27;;;;;;;;;0.75;0.00;;;;;9.89;33.70;103282.41;4975830;28;10962;-69
2023/04/03 10:37:23;;;;;;;;;0.00;0.00;;;;;10.05;33.81;103281.13;4991995;28;10179;-69
2023/04/03 10:40:05;;;;;;;;;1.50;1.00;;;;;10.01;34.23;103268.91;4981692;28;10094;-70
2023/04/03 10:42:56;;;;;;;;;1.75;0.00;;;;;10.00;33.35;103276.09;4972525;28;10057;-70
2023/04/03 10:45:29;;;;;;;;;0.00;0.00;;;;;9.93;30.90;103268.72;4986420;28;10109;-71
2023/04/03 10:48:27;;;;;;;;;0.00;0.00;;;;;9.88;32.97;103278.03;4991969;28;10126;-70
2023/04/03 10:51:11;;;;;;;;;2.00;1.00;;;;;10.05;33.32;103284.66;4972901;28;10081;-68
2023/04/03 10:53:57;;;;;;;;;0.00;0.00;;;;;9.84;31.24;103273.88;4972361;28;10105;-68
2023/04/03 10:56:47;;;;;;;;;0.00;0.00;;;;;9.81;31.26;103278.66;4973985;28;10161;-70
2023/04/03 10:59:38;;;;;;;;;0.00;0.00;;;;;10.05;31.34;103270.34;4985795;28;10248;-70
2023/04/03 11:02:40;;;;;;;;;1.00;0.00;;;;;10.03;29.01;103283.06;4972408;28;10128;-69
2023/04/03 11:05:20;;;;;;;;;0.00;0.00;;;;;9.89;29.86;103268.97;4944241;28;10140;-70
2023/04/03 11:07:51;;;;;;;;;0.00;0.00;;;;;9.81;29.28;103282.22;4991450;28;10156;-69
2023/04/03 11:10:26;;;;;;;;;0.00;0.00;;;;;9.83;30.51;103280.22;4991173;28;10143;-69
2023/04/03 11:12:59;;;;;;;;;0.00;0.00;;;;;9.90;30.41;103276.03;4991322;28;10168;-69
2023/04/03 11:15:30;;;;;;;;;0.00;0.00;;;;;10.10;30.18;103278.88;4975978;28;10164;-69
2023/04/03 11:18:09;;;;;;;;;0.00;0.00;;;;;10.07;29.35;103271.91;4971845;28;10078;-70
2023/04/03 11:20:41;;;;;;;;;0.00;0.00;;;;;10.02;30.15;103266.06;4988047;28;10079;-70
2023/04/03 11:23:29;;;;;;;;;0.00;0.00;;;;;10.03;30.78;103262.38;4991103;28;10096;-68
2023/04/03 11:26:14;;;;;;;;;0.00;0.00;;;;;10.25;30.55;103263.25;4971632;28;10156;-69
2023/04/03 11:28:41;;;;;;;;;0.00;0.00;;;;;10.25;31.07;103253.38;4971760;28;10938;-68
2023/04/03 11:31:38;;;;;;;;;0.00;0.00;;;;;10.32;30.11;103249.13;4971633;28;10263;-70
2023/04/03 11:34:23;;;;;;;;;0.00;0.00;;;;;10.33;29.89;103242.78;4975418;28;10046;-69
2023/04/03 11:36:55;;;;;;;;;1.00;0.00;;;;;10.36;30.34;103242.50;4991142;28;10134;-70
2023/04/03 11:39:24;;;;;;;;;0.00;0.00;;;;;10.35;30.14;103237.25;4984711;28;10240;-68
2023/04/03 11:41:51;;;;;;;;;0.00;0.00;;;;;10.44;29.74;103232.91;4971869;28;10203;-69
2023/04/03 11:44:36;;;;;;;;;0.00;0.00;;;;;10.43;29.83;103242.81;4978569;28;10061;-69
2023/04/03 11:47:05;;;;;;;;;0.00;0.00;;;;;10.32;29.64;103246.44;4990754;28;10052;-69
2023/04/03 11:50:02;;;;;;;;;0.00;0.00;;;;;10.43;30.08;103240.13;4982920;28;10212;-70